createdAt,value
2018-05-21T00:00:42.916Z,97044.66
2018-05-21T00:03:11.495Z,97041.99
2018-05-21T00:05:39.908Z,97042.70
2018-05-21T00:08:08.286Z,97037.38
2018-05-21T00:10:36.678Z,97038.32
2018-05-21T00:13:05.076Z,97032.45
2018-05-21T00:15:33.478Z,97026.27
2018-05-21T00:18:01.865Z,97027.08
2018-05-21T00:20:30.246Z,97021.47
2018-05-21T00:22:58.867Z,97020.25
2018-05-21T00:25:27.236Z,97021.66
2018-05-21T00:27:57.112Z,97019.40
2018-05-21T00:30:25.508Z,97012.41
2018-05-21T00:32:53.895Z,97015.42
2018-05-21T00:35:22.284Z,97016.77
2018-05-21T00:37:50.791Z,97017.42
2018-05-21T00:40:19.164Z,97015.27
2018-05-21T00:42:47.759Z,97009.73
2018-05-21T00:45:16.220Z,97002.36
2018-05-21T00:47:44.615Z,97004.87
2018-05-21T00:50:13.119Z,96998.28
2018-05-21T00:52:41.512Z,96996.08
2018-05-21T00:55:21.647Z,96991.13
2018-05-21T00:57:50.053Z,96992.16
2018-05-21T01:00:18.779Z,96988.79
2018-05-21T01:02:47.182Z,96993.13
2018-05-21T01:05:15.971Z,96990.95
2018-05-21T01:07:44.371Z,96984.36
2018-05-21T01:10:12.756Z,96981.66
2018-05-21T01:12:41.316Z,96981.33
2018-05-21T01:15:09.699Z,96982.95
2018-05-21T01:17:38.332Z,96984.68
2018-05-21T01:20:06.711Z,96978.06
2018-05-21T01:22:35.116Z,96979.98
2018-05-21T01:25:03.627Z,96969.59
2018-05-21T01:27:32.016Z,96974.75
2018-05-21T01:30:00.400Z,96974.89
2018-05-21T01:32:28.790Z,96975.70
2018-05-21T01:34:57.813Z,96968.24
2018-05-21T01:37:26.201Z,96967.57
2018-05-21T01:39:54.576Z,96968.95
2018-05-21T01:42:23.191Z,96964.30
2018-05-21T01:44:51.571Z,96964.87
2018-05-21T01:47:19.960Z,96968.24
2018-05-21T01:49:48.531Z,96961.53
2018-05-21T01:52:16.920Z,96966.92
2018-05-21T01:54:45.320Z,96957.61
2018-05-21T01:57:13.687Z,96960.05
2018-05-21T01:59:42.079Z,96963.28
2018-05-21T02:02:10.791Z,96964.33
2018-05-21T02:04:39.187Z,96956.42
2018-05-21T02:07:08.051Z,96955.14
2018-05-21T02:09:36.428Z,96959.80
2018-05-21T02:12:04.807Z,96959.59
2018-05-21T02:14:33.363Z,96957.16
2018-05-21T02:17:01.745Z,96951.19
2018-05-21T02:19:30.147Z,96947.02
2018-05-21T02:21:58.531Z,96951.63
2018-05-21T02:24:26.931Z,96950.58
2018-05-21T02:26:55.311Z,96950.12
2018-05-21T02:29:23.743Z,96953.89
2018-05-21T02:31:52.123Z,96955.54
2018-05-21T02:34:20.515Z,96955.27
2018-05-21T02:36:48.903Z,96952.03
2018-05-21T02:39:17.658Z,96951.41
2018-05-21T02:41:46.400Z,96948.95
2018-05-21T02:44:14.786Z,96945.98
2018-05-21T02:46:43.176Z,96943.19
2018-05-21T02:49:11.571Z,96937.25
2018-05-21T02:51:40.155Z,96934.58
2018-05-21T02:54:08.555Z,96926.08
2018-05-21T02:56:36.931Z,96930.96
2018-05-21T02:59:05.526Z,96927.59
2018-05-21T03:01:33.908Z,96921.16
2018-05-21T03:04:02.427Z,96921.25
2018-05-21T03:06:31.424Z,96923.46
2018-05-21T03:08:59.823Z,96923.21
2018-05-21T03:11:28.198Z,96919.34
2018-05-21T03:13:56.880Z,96922.98
2018-05-21T03:16:25.387Z,96922.59
2018-05-21T03:18:54.296Z,96926.00
2018-05-21T03:21:23.406Z,96924.13
2018-05-21T03:23:51.783Z,96925.34
2018-05-21T03:26:20.184Z,96929.54
2018-05-21T03:28:48.779Z,96926.98
2018-05-21T03:31:17.179Z,96929.95
2018-05-21T03:33:45.546Z,96922.97
2018-05-21T03:36:14.159Z,96927.28
2018-05-21T03:38:42.540Z,96920.27
2018-05-21T03:41:11.420Z,96922.55
2018-05-21T03:43:39.788Z,96921.19
2018-05-21T03:46:08.188Z,96921.61
2018-05-21T03:48:36.567Z,96919.76
2018-05-21T03:51:04.960Z,96922.86
2018-05-21T03:53:33.348Z,96922.44
2018-05-21T03:56:01.963Z,96928.24
2018-05-21T03:58:42.055Z,96922.17
2018-05-21T04:04:15.936Z,96925.30
2018-05-21T04:06:44.343Z,96918.29
2018-05-21T04:09:12.707Z,96916.44
2018-05-21T04:11:41.155Z,96913.87
2018-05-21T04:14:09.532Z,96913.47
2018-05-21T04:16:38.134Z,96914.39
2018-05-21T04:19:06.936Z,96910.91
2018-05-21T04:21:35.443Z,96913.72
2018-05-21T04:24:04.037Z,96916.14
2018-05-21T04:26:32.438Z,96911.02
2018-05-21T04:29:00.815Z,96917.22
2018-05-21T04:31:29.206Z,96917.22
2018-05-21T04:33:57.583Z,96916.95
2018-05-21T04:36:26.277Z,96926.25
2018-05-21T04:38:54.816Z,96921.41
2018-05-21T04:41:23.447Z,96926.66
2018-05-21T04:43:51.932Z,96928.94
2018-05-21T04:46:20.363Z,96932.70
2018-05-21T04:48:48.747Z,96923.80
2018-05-21T04:51:17.348Z,96926.77
2018-05-21T04:53:45.749Z,96928.25
2018-05-21T04:56:14.320Z,96918.39
2018-05-21T04:58:42.720Z,96920.80
2018-05-21T05:01:11.104Z,96916.33
2018-05-21T05:03:40.060Z,96913.19
2018-05-21T05:06:08.427Z,96912.35
2018-05-21T05:08:36.831Z,96914.76
2018-05-21T05:11:05.207Z,96910.40
2018-05-21T05:13:33.624Z,96913.59
2018-05-21T05:16:02.130Z,96916.02
2018-05-21T05:18:30.680Z,96912.56
2018-05-21T05:20:59.082Z,96917.98
2018-05-21T05:23:27.464Z,96914.19
2018-05-21T05:25:56.054Z,96913.28
2018-05-21T05:28:24.455Z,96899.14
2018-05-21T05:30:52.828Z,96900.66
2018-05-21T05:33:21.567Z,96890.91
2018-05-21T05:35:49.943Z,96886.31
2018-05-21T05:38:18.352Z,96887.19
2018-05-21T05:40:46.830Z,96887.86
2018-05-21T05:43:15.477Z,96887.05
2018-05-21T05:45:43.852Z,96889.37
2018-05-21T05:48:12.456Z,96889.59
2018-05-21T05:50:40.839Z,96885.45
2018-05-21T05:53:09.239Z,96874.97
2018-05-21T05:55:37.623Z,96885.80
2018-05-21T05:58:06.396Z,96876.82
2018-05-21T06:00:34.771Z,96864.59
2018-05-21T06:03:03.414Z,96865.11
2018-05-21T06:05:31.794Z,96867.36
2018-05-21T06:08:00.578Z,96864.75
2018-05-21T06:10:28.975Z,96868.47
2018-05-21T06:12:57.348Z,96863.63
2018-05-21T06:15:25.739Z,96868.78
2018-05-21T06:17:54.233Z,96863.58
2018-05-21T06:20:22.620Z,96865.67
2018-05-21T06:22:50.995Z,96862.23
2018-05-21T06:25:19.626Z,96859.59
2018-05-21T06:27:48.438Z,96857.14
2018-05-21T06:30:16.836Z,96848.42
2018-05-21T06:32:45.217Z,96849.01
2018-05-21T06:35:13.614Z,96847.42
2018-05-21T06:37:42.075Z,96846.00
2018-05-21T06:40:11.087Z,96851.72
2018-05-21T06:42:39.571Z,96849.65
2018-05-21T06:45:08.487Z,96853.32
2018-05-21T06:47:36.928Z,96842.42
2018-05-21T06:50:05.266Z,96842.23
2018-05-21T06:52:34.003Z,96846.19
2018-05-21T06:55:02.384Z,96843.13
2018-05-21T06:57:30.790Z,96839.74
2018-05-21T06:59:59.194Z,96841.75
2018-05-21T07:02:27.863Z,96843.61
2018-05-21T07:04:56.271Z,96835.93
2018-05-21T07:07:24.879Z,96837.12
2018-05-21T07:09:53.278Z,96839.37
2018-05-21T07:12:21.651Z,96834.47
2018-05-21T07:14:50.068Z,96829.44
2018-05-21T07:17:19.383Z,96840.38
2018-05-21T07:19:47.779Z,96838.81
2018-05-21T07:22:16.155Z,96842.19
2018-05-21T07:24:44.758Z,96832.18
2018-05-21T07:27:13.699Z,96834.86
2018-05-21T07:29:42.150Z,96833.88
2018-05-21T07:32:10.484Z,96834.53
2018-05-21T07:34:39.086Z,96829.34
2018-05-21T07:37:07.499Z,96825.44
2018-05-21T07:39:35.868Z,96824.67
2018-05-21T07:42:04.271Z,96819.38
2018-05-21T07:44:32.911Z,96820.16
2018-05-21T07:47:01.289Z,96820.88
2018-05-21T07:49:29.728Z,96821.20
2018-05-21T07:51:58.776Z,96817.79
2018-05-21T07:54:27.170Z,96817.05
2018-05-21T07:56:55.564Z,96807.59
2018-05-21T07:59:23.947Z,96804.72
2018-05-21T08:01:52.689Z,96810.13
2018-05-21T08:04:21.072Z,96799.91
2018-05-21T08:06:49.471Z,96793.01
2018-05-21T08:09:18.140Z,96806.19
2018-05-21T08:11:46.556Z,96794.81
2018-05-21T08:14:14.936Z,96792.77
2018-05-21T08:16:43.416Z,96785.48
2018-05-21T08:19:11.851Z,96786.23
2018-05-21T08:21:40.251Z,96779.59
2018-05-21T08:24:08.844Z,96788.27
2018-05-21T08:26:37.244Z,96779.63
2018-05-21T08:29:05.620Z,96780.34
2018-05-21T08:31:35.014Z,96778.70
2018-05-21T08:36:32.734Z,96773.53
2018-05-21T08:39:01.115Z,96775.70
2018-05-21T08:41:30.480Z,96770.95
2018-05-21T08:43:58.863Z,96767.09
2018-05-21T08:46:27.247Z,96772.72
2018-05-21T08:48:55.699Z,96778.83
2018-05-21T08:51:24.364Z,96776.55
2018-05-21T08:53:52.770Z,96783.87
2018-05-21T08:56:21.156Z,96778.63
2018-05-21T08:58:49.592Z,96783.91
2018-05-21T09:01:17.948Z,96788.02
2018-05-21T09:03:46.343Z,96776.13
2018-05-21T09:06:14.728Z,96779.34
2018-05-21T09:08:43.145Z,96775.99
2018-05-21T09:11:11.536Z,96770.23
2018-05-21T09:13:40.040Z,96774.73
2018-05-21T09:16:08.424Z,96773.81
2018-05-21T09:18:37.003Z,96775.27
2018-05-21T09:21:05.635Z,96776.09
2018-05-21T09:23:34.040Z,96764.03
2018-05-21T09:26:02.464Z,96763.56
2018-05-21T09:28:30.820Z,96762.16
2018-05-21T09:30:59.199Z,96752.70
2018-05-21T09:33:27.668Z,96757.88
2018-05-21T09:35:56.025Z,96767.89
2018-05-21T09:38:24.439Z,96775.65
2018-05-21T09:40:53.044Z,96765.89
2018-05-21T09:43:21.434Z,96758.53
2018-05-21T09:45:50.158Z,96760.28
2018-05-21T09:48:18.562Z,96767.01
2018-05-21T09:50:46.935Z,96760.58
2018-05-21T09:53:15.600Z,96756.97
2018-05-21T09:55:43.996Z,96754.13
2018-05-21T09:58:12.606Z,96754.36
2018-05-21T10:00:41.116Z,96742.75
2018-05-21T10:03:09.942Z,96741.17
2018-05-21T10:05:38.299Z,96737.00
2018-05-21T10:08:06.683Z,96737.05
2018-05-21T10:10:35.092Z,96744.03
2018-05-21T10:13:03.492Z,96733.04
2018-05-21T10:15:31.876Z,96733.97
2018-05-21T10:18:00.260Z,96725.55
2018-05-21T10:20:28.659Z,96728.61
2018-05-21T10:22:57.035Z,96719.72
2018-05-21T10:25:25.513Z,96730.25
2018-05-21T10:27:53.888Z,96726.00
2018-05-21T10:30:22.705Z,96717.73
2018-05-21T10:32:51.587Z,96715.18
2018-05-21T10:35:19.994Z,96712.99
2018-05-21T10:37:49.405Z,96716.57
2018-05-21T10:40:17.796Z,96715.98
2018-05-21T10:42:46.185Z,96705.94
2018-05-21T10:45:14.588Z,96699.54
2018-05-21T10:47:42.967Z,96716.75
2018-05-21T10:50:11.374Z,96708.71
2018-05-21T10:52:39.743Z,96703.56
2018-05-21T10:55:08.143Z,96710.00
2018-05-21T10:57:36.553Z,96708.97
2018-05-21T11:00:04.947Z,96704.14
2018-05-21T11:02:33.319Z,96700.58
2018-05-21T11:05:01.933Z,96699.67
2018-05-21T11:07:30.834Z,96710.94
2018-05-21T11:09:59.235Z,96699.19
2018-05-21T11:12:27.919Z,96684.10
2018-05-21T11:14:56.664Z,96685.66
2018-05-21T11:17:25.037Z,96684.61
2018-05-21T11:19:53.431Z,96686.77
2018-05-21T11:22:22.115Z,96678.28
2018-05-21T11:24:50.516Z,96680.44
2018-05-21T11:27:18.899Z,96683.83
2018-05-21T11:29:47.295Z,96673.25
2018-05-21T11:32:15.673Z,96668.72
2018-05-21T11:34:44.083Z,96665.17
2018-05-21T11:37:12.487Z,96661.02
2018-05-21T11:39:40.899Z,96657.55
2018-05-21T11:42:09.283Z,96653.44
2018-05-21T11:44:37.940Z,96652.11
2018-05-21T11:47:06.326Z,96653.31
2018-05-21T11:49:34.719Z,96650.09
2018-05-21T11:52:03.363Z,96663.92
2018-05-21T11:54:32.141Z,96648.41
2018-05-21T11:57:00.851Z,96646.84
2018-05-21T11:59:29.251Z,96645.88
2018-05-21T12:01:57.670Z,96647.26
2018-05-21T12:04:26.040Z,96654.42
2018-05-21T12:06:54.417Z,96655.50
2018-05-21T12:09:22.820Z,96647.22
2018-05-21T12:11:51.199Z,96648.80
2018-05-21T12:14:19.722Z,96646.09
2018-05-21T12:16:48.127Z,96644.64
2018-05-21T12:19:17.340Z,96642.84
2018-05-21T12:21:46.053Z,96647.31
2018-05-21T12:24:14.446Z,96645.73
2018-05-21T12:26:42.818Z,96636.03
2018-05-21T12:29:11.216Z,96640.88
2018-05-21T12:31:39.995Z,96641.39
2018-05-21T12:34:08.386Z,96650.22
2018-05-21T12:36:36.771Z,96633.25
2018-05-21T12:39:06.085Z,96638.38
2018-05-21T12:41:34.531Z,96636.63
2018-05-21T12:44:03.683Z,96636.48
2018-05-21T12:46:32.378Z,96634.44
2018-05-21T12:49:01.031Z,96635.66
2018-05-21T12:51:29.398Z,96634.55
2018-05-21T12:53:57.914Z,96637.25
2018-05-21T12:56:26.296Z,96635.28
2018-05-21T12:58:54.692Z,96631.56
2018-05-21T13:01:23.399Z,96642.66
2018-05-21T13:03:51.784Z,96633.31
2018-05-21T13:06:20.179Z,96624.85
2018-05-21T13:08:48.803Z,96623.44
2018-05-21T13:11:17.508Z,96623.98
2018-05-21T13:13:46.219Z,96625.63
2018-05-21T13:16:14.615Z,96622.91
2018-05-21T13:18:42.993Z,96618.52
2018-05-21T13:21:11.651Z,96618.50
2018-05-21T13:23:40.036Z,96615.13
2018-05-21T13:26:08.843Z,96609.95
2018-05-21T13:28:37.723Z,96615.09
2018-05-21T13:31:06.114Z,96616.25
2018-05-21T13:33:34.494Z,96611.09
2018-05-21T13:36:03.891Z,96615.52
2018-05-21T13:38:32.280Z,96611.72
2018-05-21T13:41:00.672Z,96610.58
2018-05-21T13:43:29.052Z,96598.59
2018-05-21T13:45:57.443Z,96604.70
2018-05-21T13:48:25.939Z,96610.77
2018-05-21T13:50:54.568Z,96600.57
2018-05-21T13:53:22.950Z,96595.55
2018-05-21T13:55:51.352Z,96593.72
2018-05-21T13:58:20.612Z,96593.72
2018-05-21T14:00:49.555Z,96588.26
2018-05-21T14:03:17.932Z,96583.86
2018-05-21T14:05:46.341Z,96591.36
2018-05-21T14:08:14.711Z,96590.41
2018-05-21T14:10:43.111Z,96577.41
2018-05-21T14:13:11.891Z,96580.41
2018-05-21T14:15:40.287Z,96584.22
2018-05-21T14:18:08.666Z,96584.32
2018-05-21T14:20:37.073Z,96584.77
2018-05-21T14:23:05.435Z,96582.44
2018-05-21T14:25:33.831Z,96580.48
2018-05-21T14:28:02.203Z,96586.09
2018-05-21T14:30:30.596Z,96571.13
2018-05-21T14:32:58.980Z,96573.52
2018-05-21T14:35:27.391Z,96573.16
2018-05-21T14:37:56.079Z,96562.97
2018-05-21T14:40:24.991Z,96564.42
2018-05-21T14:42:53.583Z,96566.95
2018-05-21T14:45:22.316Z,96564.83
2018-05-21T14:47:50.695Z,96555.98
2018-05-21T14:50:19.086Z,96553.08
2018-05-21T14:52:47.472Z,96552.95
2018-05-21T14:55:15.866Z,96550.84
2018-05-21T14:57:44.243Z,96559.69
2018-05-21T15:00:12.639Z,96560.70
2018-05-21T15:02:41.021Z,96547.31
2018-05-21T15:05:10.053Z,96556.75
2018-05-21T15:07:38.432Z,96550.79
2018-05-21T15:10:06.827Z,96546.91
2018-05-21T15:12:35.207Z,96539.64
2018-05-21T15:15:03.607Z,96545.65
2018-05-21T15:17:32.075Z,96548.08
2018-05-21T15:20:00.391Z,96543.00
2018-05-21T15:22:28.871Z,96546.00
2018-05-21T15:24:57.438Z,96538.38
2018-05-21T15:27:25.809Z,96533.11
2018-05-21T15:29:54.211Z,96535.63
2018-05-21T15:32:22.860Z,96532.02
2018-05-21T15:34:51.264Z,96525.75
2018-05-21T15:37:19.643Z,96528.46
2018-05-21T15:39:48.034Z,96539.25
2018-05-21T15:42:16.406Z,96525.47
2018-05-21T15:44:44.819Z,96523.19
2018-05-21T15:47:13.251Z,96530.34
2018-05-21T15:49:41.643Z,96531.57
2018-05-21T15:52:10.139Z,96527.20
2018-05-21T15:54:38.931Z,96519.56
2018-05-21T15:57:07.307Z,96524.72
2018-05-21T15:59:35.693Z,96522.69
2018-05-21T16:02:04.115Z,96516.27
2018-05-21T16:04:33.163Z,96525.00
2018-05-21T16:07:01.562Z,96525.66
2018-05-21T16:09:29.935Z,96524.18
2018-05-21T16:11:58.558Z,96526.86
2018-05-21T16:14:27.371Z,96519.36
2018-05-21T16:16:55.764Z,96525.95
2018-05-21T16:19:24.152Z,96505.83
2018-05-21T16:21:52.548Z,96505.56
2018-05-21T16:24:20.922Z,96505.17
2018-05-21T16:26:49.728Z,96502.24
2018-05-21T16:29:18.450Z,96501.77
2018-05-21T16:31:46.852Z,96503.50
2018-05-21T16:34:15.223Z,96506.17
2018-05-21T16:36:43.863Z,96505.23
2018-05-21T16:39:12.252Z,96503.02
2018-05-21T16:41:40.651Z,96506.16
2018-05-21T16:44:09.737Z,96497.48
2018-05-21T16:46:38.128Z,96501.86
2018-05-21T16:49:06.508Z,96495.81
2018-05-21T16:51:34.913Z,96497.23
2018-05-21T16:54:03.293Z,96495.58
2018-05-21T16:56:31.697Z,96496.08
2018-05-21T16:59:00.062Z,96499.36
2018-05-21T17:01:28.693Z,96495.20
2018-05-21T17:03:57.067Z,96497.65
2018-05-21T17:06:25.459Z,96498.17
2018-05-21T17:08:53.872Z,96494.00
2018-05-21T17:11:22.263Z,96492.48
2018-05-21T17:13:50.700Z,96492.03
2018-05-21T17:16:19.107Z,96497.37
2018-05-21T17:18:47.480Z,96488.58
2018-05-21T17:21:15.880Z,96491.22
2018-05-21T17:23:44.539Z,96493.90
2018-05-21T17:26:13.048Z,96491.81
2018-05-21T17:28:41.429Z,96490.27
2018-05-21T17:31:09.827Z,96487.53
2018-05-21T17:33:38.198Z,96484.57
2018-05-21T17:36:06.592Z,96492.99
2018-05-21T17:38:34.963Z,96492.73
2018-05-21T17:41:03.355Z,96489.59
2018-05-21T17:43:31.741Z,96496.93
2018-05-21T17:46:00.140Z,96497.89
2018-05-21T17:48:28.523Z,96495.86
2018-05-21T17:50:56.927Z,96499.33
2018-05-21T17:53:25.315Z,96498.55
2018-05-21T17:55:53.707Z,96495.75
2018-05-21T17:58:22.090Z,96496.39
2018-05-21T18:00:50.611Z,96502.82
2018-05-21T18:03:19.307Z,96499.48
2018-05-21T18:05:47.626Z,96503.41
2018-05-21T18:08:16.017Z,96507.94
2018-05-21T18:10:44.539Z,96506.47
2018-05-21T18:13:12.915Z,96512.50
2018-05-21T18:15:41.312Z,96507.94
2018-05-21T18:18:09.700Z,96515.03
2018-05-21T18:20:38.087Z,96513.02
2018-05-21T18:23:06.451Z,96520.17
2018-05-21T18:25:34.851Z,96521.67
2018-05-21T18:28:03.543Z,96508.14
2018-05-21T18:30:31.984Z,96519.92
2018-05-21T18:33:00.369Z,96510.00
2018-05-21T18:35:28.771Z,96507.95
2018-05-21T18:37:57.464Z,96508.34
2018-05-21T18:40:25.863Z,96509.21
2018-05-21T18:42:54.244Z,96513.30
2018-05-21T18:45:22.868Z,96513.07
2018-05-21T18:47:51.655Z,96504.86
2018-05-21T18:50:20.379Z,96504.06
2018-05-21T18:52:49.191Z,96510.45
2018-05-21T18:55:17.584Z,96503.19
2018-05-21T18:57:45.964Z,96510.52
2018-05-21T19:00:14.356Z,96505.98
2018-05-21T19:02:43.365Z,96512.41
2018-05-21T19:05:11.739Z,96510.12
2018-05-21T19:07:40.139Z,96511.50
2018-05-21T19:10:08.524Z,96507.48
2018-05-21T19:12:37.242Z,96506.53
2018-05-21T19:15:05.740Z,96511.66
2018-05-21T19:17:34.132Z,96519.26
2018-05-21T19:20:02.631Z,96508.77
2018-05-21T19:22:31.183Z,96517.84
2018-05-21T19:24:59.582Z,96514.86
2018-05-21T19:27:27.974Z,96523.95
2018-05-21T19:29:56.560Z,96517.64
2018-05-21T19:32:24.961Z,96520.27
2018-05-21T19:34:53.341Z,96521.91
2018-05-21T19:37:21.744Z,96530.59
2018-05-21T19:39:50.124Z,96528.20
2018-05-21T19:42:18.520Z,96524.73
2018-05-21T19:44:46.886Z,96532.56
2018-05-21T19:47:15.281Z,96533.33
2018-05-21T19:49:43.651Z,96536.44
2018-05-21T19:52:12.048Z,96539.58
2018-05-21T19:54:40.429Z,96541.40
2018-05-21T19:57:08.827Z,96536.91
2018-05-21T19:59:37.332Z,96538.82
2018-05-21T20:02:08.864Z,96538.19
2018-05-21T20:04:37.243Z,96534.52
2018-05-21T20:07:05.627Z,96538.73
2018-05-21T20:09:34.250Z,96536.98
2018-05-21T20:12:02.867Z,96537.54
2018-05-21T20:14:31.256Z,96535.33
2018-05-21T20:16:59.623Z,96533.88
2018-05-21T20:19:28.322Z,96536.18
2018-05-21T20:21:56.778Z,96535.73
2018-05-21T20:24:25.171Z,96535.56
2018-05-21T20:26:53.654Z,96534.28
2018-05-21T20:29:22.464Z,96541.39
2018-05-21T20:31:50.848Z,96540.27
2018-05-21T20:34:20.035Z,96542.16
2018-05-21T20:36:48.424Z,96535.51
2018-05-21T20:39:16.829Z,96532.78
2018-05-21T20:41:45.219Z,96531.48
2018-05-21T20:44:13.616Z,96537.34
2018-05-21T20:46:41.995Z,96535.09
2018-05-21T20:49:10.819Z,96530.83
2018-05-21T20:51:39.202Z,96536.31
2018-05-21T20:54:07.604Z,96529.70
2018-05-21T20:56:35.992Z,96531.13
2018-05-21T20:59:04.399Z,96528.38
2018-05-21T21:01:32.778Z,96531.70
2018-05-21T21:04:01.182Z,96527.05
2018-05-21T21:06:29.564Z,96528.59
2018-05-21T21:08:57.964Z,96530.60
2018-05-21T21:11:26.339Z,96526.29
2018-05-21T21:13:54.747Z,96526.89
2018-05-21T21:16:23.252Z,96528.03
2018-05-21T21:18:51.633Z,96531.00
2018-05-21T21:21:20.031Z,96531.50
2018-05-21T21:23:48.403Z,96532.30
2018-05-21T21:26:16.808Z,96538.42
2018-05-21T21:28:45.616Z,96539.07
2018-05-21T21:31:14.019Z,96532.93
2018-05-21T21:33:42.406Z,96542.78
2018-05-21T21:36:10.802Z,96540.19
2018-05-21T21:38:39.195Z,96540.89
2018-05-21T21:41:07.600Z,96530.06
2018-05-21T21:43:35.979Z,96536.70
2018-05-21T21:46:04.611Z,96532.30
2018-05-21T21:48:32.996Z,96528.39
2018-05-21T21:51:01.403Z,96526.19
2018-05-21T21:53:30.099Z,96524.92
2018-05-21T21:55:59.107Z,96525.41
2018-05-21T21:58:27.570Z,96533.64
2018-05-21T22:00:56.071Z,96528.44
2018-05-21T22:03:24.455Z,96523.34
2018-05-21T22:05:52.887Z,96515.88
2018-05-21T22:08:21.266Z,96522.20
2018-05-21T22:10:49.703Z,96517.94
2018-05-21T22:13:18.083Z,96513.34
2018-05-21T22:15:46.475Z,96514.72
2018-05-21T22:18:14.874Z,96520.22
2018-05-21T22:20:43.280Z,96511.84
2018-05-21T22:23:11.680Z,96511.55
2018-05-21T22:25:40.058Z,96515.14
2018-05-21T22:28:08.471Z,96512.08
2018-05-21T22:30:36.856Z,96513.51
2018-05-21T22:33:05.254Z,96508.30
2018-05-21T22:35:33.646Z,96511.03
2018-05-21T22:38:02.740Z,96510.48
2018-05-21T22:40:31.224Z,96505.91
2018-05-21T22:42:59.633Z,96499.62
2018-05-21T22:45:27.994Z,96499.91
2018-05-21T22:47:56.718Z,96503.23
2018-05-21T22:50:25.103Z,96503.23
2018-05-21T22:52:53.519Z,96500.00
2018-05-21T22:55:22.134Z,96500.73
2018-05-21T22:57:50.538Z,96491.34
2018-05-21T23:00:18.919Z,96493.13
2018-05-21T23:02:47.871Z,96495.92
2018-05-21T23:05:16.247Z,96495.86
2018-05-21T23:07:45.024Z,96494.39
2018-05-21T23:10:13.416Z,96492.22
2018-05-21T23:12:41.828Z,96484.99
2018-05-21T23:15:10.214Z,96480.55
2018-05-21T23:17:38.603Z,96481.27
2018-05-21T23:20:06.992Z,96476.11
2018-05-21T23:22:44.845Z,96476.38
2018-05-21T23:25:13.227Z,96473.80
2018-05-21T23:27:41.627Z,96473.54
2018-05-21T23:30:09.999Z,96477.19
2018-05-21T23:32:38.868Z,96479.02
2018-05-21T23:35:07.276Z,96468.72
2018-05-21T23:37:35.651Z,96470.92
2018-05-21T23:40:04.062Z,96479.95
2018-05-21T23:42:32.452Z,96471.12
2018-05-21T23:45:00.851Z,96474.92
2018-05-21T23:47:29.231Z,96471.32
2018-05-21T23:49:58.054Z,96469.43
2018-05-21T23:52:26.446Z,96468.84
2018-05-21T23:54:54.847Z,96465.38
2018-05-21T23:57:23.685Z,96474.23
2018-05-21T23:59:52.383Z,96471.60
